Wolf, WY

6:54 PM MDT on September 23, 2014 (GMT -0600)
Sheridan County | Change Station
CLOSE
Current Station
Airport
Location: Sheridan,
Elevation: 3967 ft
Nearby Weather Stations

Elev 3967 ft 44.76 °N, 106.97 °W | Updated 1 hour ago

Clear
Clear
77 °F
Feels Like 77 °F
N
7
Wind Variable Wind from NNW

Today
High -- | Low -- °F
--% Chance of Precip.
Yesterday
High -- | Low -- °F
Precip. -- in
6:57 AM 7:04 PM
Waning Crescent, 0% visible
Pressure 29.94 in
Visibility 10.0 miles
Clouds Clear
Dew Point 49 °F
Humidity 37%
Rainfall 0.00 in
Snow Depth 0 in , 0 in , 0 in
UV 1 out of 12
Pollen 5.00 out of 12
Air Quality Not available.
Flu Activity Not available.
METAR KSHR 232353Z AUTO 34006KT 10SM CLR 25/09 A3002 RMK AO2 SLP137 T02500094 10283 20250 53002

More Conditions Fewer Conditions

Pressure 29.94 in
Visibility 10.0 miles
Clouds Clear
Dew Point 49 °F
Humidity 37%
Rainfall 0.00 in
Snow Depth 0 in , 0 in , 0 in
UV 1 out of 12
Pollen 5.00 out of 12
Air Quality Not available.
Flu Activity Not available.
METAR KSHR 232353Z AUTO 34006KT 10SM CLR 25/09 A3002 RMK AO2 SLP137 T02500094 10283 20250 53002

More Conditions Fewer Conditions

10-Day Weather Forecast

Almanac

Astronomy

Sep. 23, 2014 Rise Set
Actual Time 6:57 AM MDT 7:04 PM MDT
Civil Twilight 6:28 AM MDT 7:33 PM MDT
Nautical Twilight 5:53 AM MDT 8:07 PM MDT
Astronomical Twilight 5:18 AM MDT 8:42 PM MDT
Moon 6:23 AM MDT (9/23) 6:43 PM MDT (9/23)
Length of Visible Light 13h 05m
Length of Day
12h 07m
Tomorrow will be 3m 6s shorter.
Waning Crescent, 0% of the Moon is Illuminated
Today
Waning Crescent
Sep 24
New
Oct 1
First Quarter
Oct 8
Full
Oct 15
Last Quarter

Today's Extremes

State Highs State Lows

Community

WunderPhotos

Upload Photos

1,755,834 photos uploaded!

Nearby

Snow Depth

Station Depth Elevation
Kelley R.S. 0 in 8180 ft
Willow Creek 0 in 8450 ft
Little Warm 0 in 9370 ft
Middle Powder 0 in 7760 ft
Cinnabar Park 0 in 9690 ft

Earthquake Activity

City Distance Mag. Time & Date
No recent earthquake activity has been reported nearby.
Minimum magnitude displayed is 2.5.

Coastal Water Temperatures

Place Temperature
No Stations Reporting

Nearby Weather Stations